createdAt,value
2023-04-19T00:02:02.481Z,102175.72
2023-04-19T00:04:30.294Z,102175.72
2023-04-19T00:06:58.539Z,102176.31
2023-04-19T00:09:25.239Z,102182.44
2023-04-19T00:11:52.854Z,102183.06
2023-04-19T00:14:19.454Z,102187.78
2023-04-19T00:16:46.160Z,102188.06
2023-04-19T00:19:12.797Z,102185.88
2023-04-19T00:21:39.435Z,102180.69
2023-04-19T00:24:06.419Z,102182.09
2023-04-19T00:26:33.088Z,102173.59
2023-04-19T00:28:59.728Z,102169.47
2023-04-19T00:31:26.498Z,102169.47
2023-04-19T00:33:53.232Z,102153.31
2023-04-19T00:36:20.956Z,102153.06
2023-04-19T00:38:47.592Z,102140.38
2023-04-19T00:41:14.309Z,102141.00
2023-04-19T00:43:41.037Z,102137.19
2023-04-19T00:46:07.784Z,102135.84
2023-04-19T00:48:36.403Z,102127.88
2023-04-19T00:51:04.063Z,102132.84
2023-04-19T00:53:31.364Z,102125.47
2023-04-19T00:56:02.312Z,102128.53
2023-04-19T00:58:31.564Z,102132.72
2023-04-19T01:00:58.677Z,102127.47
2023-04-19T01:03:27.520Z,102122.56
2023-04-19T01:05:54.436Z,102128.38
2023-04-19T01:08:21.044Z,102135.84
2023-04-19T01:10:47.656Z,102129.81
2023-04-19T01:13:14.227Z,102132.84
2023-04-19T01:15:40.879Z,102125.69
2023-04-19T01:18:07.724Z,102129.88
2023-04-19T01:20:34.553Z,102123.84
2023-04-19T01:23:01.443Z,102142.63
2023-04-19T01:25:28.104Z,102143.75
2023-04-19T01:27:54.744Z,102141.59
2023-04-19T01:30:21.496Z,102139.09
2023-04-19T01:32:48.145Z,102140.25
2023-04-19T01:35:14.836Z,102143.00
2023-04-19T01:37:41.486Z,102144.41
2023-04-19T01:40:08.983Z,102144.41
2023-04-19T01:42:35.626Z,102140.31
2023-04-19T01:45:02.241Z,102145.00
2023-04-19T01:47:29.178Z,102137.00
2023-04-19T01:49:55.934Z,102143.16
2023-04-19T01:52:22.547Z,102129.63
2023-04-19T01:54:49.212Z,102129.09
2023-04-19T01:57:16.678Z,102126.94
2023-04-19T01:59:43.359Z,102126.94
2023-04-19T02:02:10.172Z,102123.66
2023-04-19T02:04:37.517Z,102114.84
2023-04-19T02:07:06.081Z,102115.94
2023-04-19T02:09:36.399Z,102121.78
2023-04-19T02:12:03.660Z,102113.78
2023-04-19T02:14:30.709Z,102089.53
2023-04-19T02:16:57.718Z,102112.75
2023-04-19T02:19:24.633Z,102117.69
2023-04-19T02:21:51.844Z,102116.34
2023-04-19T02:24:18.446Z,102106.75
2023-04-19T02:26:45.045Z,102108.97
2023-04-19T02:29:11.682Z,102100.69
2023-04-19T02:31:38.331Z,102101.28
2023-04-19T02:34:04.981Z,102096.91
2023-04-19T02:36:32.112Z,102089.75
2023-04-19T02:38:59.394Z,102086.47
2023-04-19T02:41:26.059Z,102083.47
2023-04-19T02:43:52.660Z,102079.38
2023-04-19T02:46:19.327Z,102069.44
2023-04-19T02:48:46.418Z,102073.31
2023-04-19T02:51:17.763Z,102088.22
2023-04-19T02:53:44.497Z,102084.94
2023-04-19T02:56:11.124Z,102078.59
2023-04-19T02:58:37.767Z,102085.53
2023-04-19T03:01:04.616Z,102062.66
2023-04-19T03:03:31.730Z,102067.34
2023-04-19T03:05:58.517Z,102059.38
2023-04-19T03:08:25.202Z,102060.19
2023-04-19T03:10:51.830Z,102062.44
2023-04-19T03:13:18.550Z,102043.72
2023-04-19T03:15:45.159Z,102047.06
2023-04-19T03:18:11.754Z,102043.16
2023-04-19T03:20:38.404Z,102047.34
2023-04-19T03:23:05.032Z,102046.00
2023-04-19T03:25:33.238Z,102050.72
2023-04-19T03:27:59.907Z,102051.50
2023-04-19T03:30:26.603Z,102041.63
2023-04-19T03:32:53.567Z,102051.50
2023-04-19T03:35:21.179Z,102061.75
2023-04-19T03:37:47.761Z,102051.50
2023-04-19T03:40:14.420Z,102042.44
2023-04-19T03:42:41.036Z,102049.88
2023-04-19T03:45:08.114Z,102057.31
2023-04-19T03:47:34.749Z,102053.47
2023-04-19T03:50:01.389Z,102068.88
2023-04-19T03:52:28.002Z,102056.50
2023-04-19T03:54:54.665Z,102074.69
2023-04-19T03:57:22.203Z,102076.31
2023-04-19T03:59:48.870Z,102075.22
2023-04-19T04:02:15.798Z,102072.75
2023-04-19T04:04:42.728Z,102067.25
2023-04-19T04:07:09.669Z,102059.78
2023-04-19T04:09:36.331Z,102056.50
2023-04-19T04:12:03.065Z,102047.41
2023-04-19T04:14:29.703Z,102053.75
2023-04-19T04:16:56.309Z,102066.44
2023-04-19T04:19:22.946Z,102059.78
2023-04-19T04:21:49.691Z,102069.69
2023-04-19T04:24:18.021Z,102065.84
2023-04-19T04:26:45.966Z,102065.22
2023-04-19T04:29:13.520Z,102064.63
2023-04-19T04:31:40.291Z,102070.41
2023-04-19T04:34:09.164Z,102066.22
2023-04-19T04:36:39.050Z,102069.81
2023-04-19T04:39:06.450Z,102052.44
2023-04-19T04:41:33.162Z,102055.19
2023-04-19T04:44:12.086Z,102053.53
2023-04-19T04:46:39.051Z,102049.16
2023-04-19T04:49:06.578Z,102058.53
2023-04-19T04:51:33.340Z,102055.28
2023-04-19T04:53:59.976Z,102065.47
2023-04-19T04:56:27.052Z,102059.13
2023-04-19T04:58:53.947Z,102077.63
2023-04-19T05:01:22.137Z,102082.00
2023-04-19T05:03:48.763Z,102085.00
2023-04-19T05:06:15.539Z,102084.69
2023-04-19T05:08:42.378Z,102073.09
2023-04-19T05:11:09.119Z,102074.44
2023-04-19T05:13:35.964Z,102078.84
2023-04-19T05:16:02.647Z,102078.53
2023-04-19T05:18:29.280Z,102071.59
2023-04-19T05:20:57.419Z,102076.59
2023-04-19T05:23:24.106Z,102082.13
2023-04-19T05:25:51.188Z,102082.72
2023-04-19T05:28:17.947Z,102071.69
2023-04-19T05:30:44.725Z,102076.09
2023-04-19T05:33:11.399Z,102076.09
2023-04-19T05:35:38.090Z,102083.22
2023-04-19T05:38:04.785Z,102086.81
2023-04-19T05:40:31.603Z,102086.53
2023-04-19T05:42:58.222Z,102082.63
2023-04-19T05:45:26.236Z,102087.63
2023-04-19T05:47:52.881Z,102103.34
2023-04-19T05:50:21.104Z,102094.81
2023-04-19T05:52:47.919Z,102086.22
2023-04-19T05:55:14.620Z,102094.19
2023-04-19T05:57:41.504Z,102103.00
2023-04-19T06:00:11.238Z,102087.56
2023-04-19T06:02:38.157Z,102090.56
2023-04-19T06:05:09.881Z,102096.09
2023-04-19T06:07:40.535Z,102080.63
2023-04-19T06:10:14.016Z,102090.03
2023-04-19T06:12:40.638Z,102091.97
2023-04-19T06:15:07.784Z,102077.38
2023-04-19T06:17:34.439Z,102086.47
2023-04-19T06:20:01.185Z,102086.47
2023-04-19T06:22:27.918Z,102088.03
2023-04-19T06:24:54.549Z,102083.06
2023-04-19T06:27:21.352Z,102094.59
2023-04-19T06:29:49.845Z,102096.53
2023-04-19T06:32:17.796Z,102097.06
2023-04-19T06:34:44.501Z,102091.00
2023-04-19T06:37:12.484Z,102092.94
2023-04-19T06:39:39.106Z,102085.81
2023-04-19T06:42:07.102Z,102080.28
2023-04-19T06:44:33.674Z,102074.47
2023-04-19T06:47:00.844Z,102076.13
2023-04-19T06:49:27.503Z,102086.84
2023-04-19T06:51:54.378Z,102065.28
2023-04-19T06:54:21.268Z,102069.72
2023-04-19T06:56:49.987Z,102063.09
2023-04-19T06:59:21.020Z,102062.47
2023-04-19T07:01:48.286Z,102070.47
2023-04-19T07:04:16.043Z,102058.56
2023-04-19T07:06:42.987Z,102066.75
2023-04-19T07:09:09.574Z,102073.09
2023-04-19T07:11:36.306Z,102066.75
2023-04-19T07:14:03.137Z,102069.50
2023-04-19T07:16:30.239Z,102072.00
2023-04-19T07:18:57.923Z,102077.50
2023-04-19T07:21:28.778Z,102074.16
2023-04-19T07:23:55.528Z,102080.72
2023-04-19T07:26:22.241Z,102077.94
2023-04-19T07:28:52.961Z,102092.81
2023-04-19T07:31:19.735Z,102081.47
2023-04-19T07:33:46.507Z,102102.94
2023-04-19T07:36:13.237Z,102078.38
2023-04-19T07:38:40.325Z,102086.38
2023-04-19T07:41:06.949Z,102083.31
2023-04-19T07:43:33.691Z,102079.97
2023-04-19T07:46:00.518Z,102081.91
2023-04-19T07:48:27.273Z,102068.63
2023-04-19T07:50:54.138Z,102074.66
2023-04-19T07:53:20.784Z,102072.44
2023-04-19T07:55:47.471Z,102078.69
2023-04-19T07:58:14.145Z,102078.28
2023-04-19T08:00:40.806Z,102063.38
2023-04-19T08:03:09.033Z,102066.66
2023-04-19T08:05:36.204Z,102063.53
2023-04-19T08:08:02.949Z,102062.59
2023-04-19T08:10:30.726Z,102069.19
2023-04-19T08:13:04.985Z,102070.44
2023-04-19T08:16:05.207Z,102078.03
2023-04-19T08:18:21.411Z,102069.78
2023-04-19T08:20:48.259Z,102065.19
2023-04-19T08:23:22.683Z,102070.72
2023-04-19T08:25:53.612Z,102069.09
2023-04-19T08:28:20.378Z,102072.91
2023-04-19T08:30:47.131Z,102079.97
2023-04-19T08:33:13.987Z,102078.13
2023-04-19T08:35:41.971Z,102079.97
2023-04-19T08:38:09.866Z,102085.91
2023-04-19T08:40:41.769Z,102085.69
2023-04-19T08:43:08.508Z,102087.63
2023-04-19T08:45:36.830Z,102080.16
2023-04-19T08:48:05.095Z,102088.16
2023-04-19T08:50:38.780Z,102087.97
2023-04-19T08:53:24.978Z,102076.69
2023-04-19T08:58:51.986Z,102087.63
2023-04-19T09:01:33.938Z,102093.69
2023-04-19T09:04:21.649Z,102093.69
2023-04-19T09:06:52.776Z,102090.31
2023-04-19T09:11:49.677Z,102096.97
2023-04-19T09:14:18.201Z,102092.66
2023-04-19T09:16:45.325Z,102096.53
2023-04-19T09:19:23.393Z,102086.31
2023-04-19T09:21:53.047Z,102095.53
2023-04-19T09:24:19.746Z,102092.25
2023-04-19T09:26:55.106Z,102087.75
2023-04-19T09:29:21.830Z,102091.84
2023-04-19T09:31:58.948Z,102099.84
2023-04-19T09:34:25.851Z,102084.16
2023-04-19T09:37:01.030Z,102088.25
2023-04-19T09:39:38.270Z,102090.22
2023-04-19T09:42:05.030Z,102088.16
2023-04-19T09:45:12.649Z,102091.44
2023-04-19T09:47:24.655Z,102095.31
2023-04-19T09:50:21.748Z,102082.53
2023-04-19T09:52:50.295Z,102090.53
2023-04-19T09:57:48.950Z,102085.09
2023-04-19T10:00:16.868Z,102088.75
2023-04-19T10:02:45.319Z,102093.59
2023-04-19T10:05:20.313Z,102086.94
2023-04-19T10:07:49.681Z,102085.09
2023-04-19T10:10:22.476Z,102087.03
2023-04-19T10:15:26.827Z,102091.03
2023-04-19T10:17:56.731Z,102091.25
2023-04-19T10:20:30.695Z,102092.91
2023-04-19T10:22:57.474Z,102087.38
2023-04-19T10:25:30.805Z,102083.66
2023-04-19T10:27:58.097Z,102083.13
2023-04-19T10:30:28.362Z,102076.50
2023-04-19T10:32:56.984Z,102078.53
2023-04-19T10:35:25.294Z,102079.13
2023-04-19T10:38:07.235Z,102072.13
2023-04-19T10:40:52.493Z,102066.09
2023-04-19T10:43:20.247Z,102067.47
2023-04-19T10:45:47.856Z,102058.16
2023-04-19T10:48:26.597Z,102055.44
2023-04-19T10:51:00.305Z,102073.25
2023-04-19T10:53:46.606Z,102069.38
2023-04-19T10:56:14.039Z,102071.13
2023-04-19T10:59:02.445Z,102073.16
2023-04-19T11:01:40.028Z,102060.22
2023-04-19T11:04:08.528Z,102046.84
2023-04-19T11:06:37.213Z,102074.00
2023-04-19T11:09:07.245Z,102071.56
2023-04-19T11:11:35.884Z,102073.03
2023-04-19T11:14:04.352Z,102066.78
2023-04-19T11:16:45.158Z,102073.66
2023-04-19T11:19:16.932Z,102087.38
2023-04-19T11:21:48.787Z,102071.00
2023-04-19T11:24:18.676Z,102074.53
2023-04-19T11:26:47.089Z,102077.78
2023-04-19T11:29:14.379Z,102077.03
2023-04-19T11:31:45.283Z,102074.66
2023-04-19T11:34:12.510Z,102064.16
2023-04-19T11:37:09.729Z,102068.25
2023-04-19T11:39:45.734Z,102075.03
2023-04-19T11:42:22.033Z,102074.41
2023-04-19T11:44:52.615Z,102059.81
2023-04-19T11:47:23.081Z,102068.81
2023-04-19T11:49:49.882Z,102056.13
2023-04-19T11:52:24.812Z,102063.06
2023-04-19T11:54:54.954Z,102058.63
2023-04-19T11:57:31.391Z,102068.91
2023-04-19T12:00:05.630Z,102066.19
2023-04-19T12:02:38.200Z,102060.53
2023-04-19T12:05:16.387Z,102051.72
2023-04-19T12:08:06.738Z,102059.19
2023-04-19T12:10:34.177Z,102045.19
2023-04-19T12:13:00.983Z,102050.50
2023-04-19T12:15:44.519Z,102050.34
2023-04-19T12:18:11.415Z,102053.53
2023-04-19T12:20:43.834Z,102050.06
2023-04-19T12:23:16.405Z,102043.16
2023-04-19T12:25:47.645Z,102047.06
2023-04-19T12:28:15.526Z,102044.06
2023-04-19T12:30:42.616Z,102046.69
2023-04-19T12:33:09.743Z,102045.91
2023-04-19T12:35:39.377Z,102049.34
2023-04-19T12:38:06.470Z,102045.78
2023-04-19T12:40:33.541Z,102036.22
2023-04-19T12:43:00.317Z,102036.59
2023-04-19T12:45:27.350Z,102022.75
2023-04-19T12:47:53.944Z,102038.63
2023-04-19T12:50:20.894Z,102040.56
2023-04-19T12:52:48.068Z,102032.09
2023-04-19T12:55:14.822Z,102034.69
2023-04-19T12:57:42.547Z,102042.53
2023-04-19T13:00:11.097Z,102040.03
2023-04-19T13:02:38.532Z,102056.25
2023-04-19T13:05:06.392Z,102039.09
2023-04-19T13:07:33.240Z,102042.22
2023-04-19T13:10:00.106Z,102032.91
2023-04-19T13:12:27.958Z,102035.34
2023-04-19T13:14:54.824Z,102032.25
2023-04-19T13:17:21.591Z,102026.66
2023-04-19T13:19:48.626Z,102031.59
2023-04-19T13:22:15.667Z,102021.97
2023-04-19T13:24:42.370Z,102016.25
2023-04-19T13:27:09.461Z,102024.91
2023-04-19T13:29:36.733Z,102015.09
2023-04-19T13:32:03.687Z,102021.47
2023-04-19T13:34:30.919Z,102016.50
2023-04-19T13:36:58.341Z,102014.19
2023-04-19T13:39:25.276Z,102017.28
2023-04-19T13:41:51.980Z,102001.75
2023-04-19T13:44:18.838Z,101997.81
2023-04-19T13:46:46.078Z,102003.06
2023-04-19T13:49:12.715Z,102009.28
2023-04-19T13:51:49.440Z,101997.94
2023-04-19T13:54:18.286Z,101994.09
2023-04-19T13:56:45.544Z,101989.59
2023-04-19T13:59:12.206Z,102000.44
2023-04-19T14:01:39.130Z,101983.19
2023-04-19T14:04:06.099Z,101985.84
2023-04-19T14:06:33.087Z,101997.84
2023-04-19T14:08:59.808Z,101988.75
2023-04-19T14:11:26.547Z,101987.09
2023-04-19T14:13:54.037Z,101994.22
2023-04-19T14:16:21.176Z,101996.47
2023-04-19T14:18:47.976Z,101989.81
2023-04-19T14:21:14.666Z,101995.88
2023-04-19T14:23:41.292Z,101991.47
2023-04-19T14:26:07.958Z,101995.38
2023-04-19T14:28:35.915Z,101984.63
2023-04-19T14:31:15.401Z,101983.97
2023-04-19T14:33:42.220Z,101978.28
2023-04-19T14:36:09.182Z,101972.56
2023-04-19T14:38:36.252Z,101977.00
2023-04-19T14:41:05.418Z,101970.50
2023-04-19T14:43:32.987Z,101961.50
2023-04-19T14:45:59.862Z,101953.19
2023-04-19T14:48:26.565Z,101948.56
2023-04-19T14:50:59.429Z,101949.47
2023-04-19T14:53:26.043Z,101956.75
2023-04-19T14:55:52.685Z,101959.22
2023-04-19T14:58:24.128Z,101955.16
2023-04-19T15:00:50.948Z,101957.72
2023-04-19T15:03:18.359Z,101958.75
2023-04-19T15:06:07.572Z,101962.22
2023-04-19T15:08:34.487Z,101957.47
2023-04-19T15:11:01.229Z,101964.03
2023-04-19T15:13:29.821Z,101954.75
2023-04-19T15:15:57.407Z,101946.91
2023-04-19T15:18:24.184Z,101952.94
2023-04-19T15:20:51.000Z,101950.81
2023-04-19T15:23:17.664Z,101945.53
2023-04-19T15:25:44.736Z,101952.75
2023-04-19T15:28:11.396Z,101944.59
2023-04-19T15:30:38.005Z,101957.34
2023-04-19T15:33:04.705Z,101949.31
2023-04-19T15:35:32.177Z,101958.97
2023-04-19T15:37:58.781Z,101954.56
2023-04-19T15:40:25.769Z,101956.34
2023-04-19T15:42:52.502Z,101953.59
2023-04-19T15:45:19.391Z,101953.81
2023-04-19T15:47:46.171Z,101955.78
2023-04-19T15:50:13.850Z,101943.53
2023-04-19T15:52:41.233Z,101945.84
2023-04-19T15:55:08.632Z,101939.28
2023-04-19T15:57:35.391Z,101946.63
2023-04-19T16:00:02.027Z,101940.88
2023-04-19T16:02:29.713Z,101928.13
2023-04-19T16:04:56.603Z,101931.59
2023-04-19T16:07:23.385Z,101935.50
2023-04-19T16:09:50.179Z,101930.91
2023-04-19T16:12:16.872Z,101936.78
2023-04-19T16:14:43.530Z,101927.44
2023-04-19T16:17:10.226Z,101924.00
2023-04-19T16:19:36.856Z,101930.03
2023-04-19T16:22:05.705Z,101922.84
2023-04-19T16:24:32.448Z,101925.50
2023-04-19T16:26:59.338Z,101925.81
2023-04-19T16:29:26.896Z,101913.56
2023-04-19T16:31:53.830Z,101911.13
2023-04-19T16:34:21.290Z,101919.00
2023-04-19T16:36:47.995Z,101918.19
2023-04-19T16:39:14.902Z,101919.13
2023-04-19T16:41:41.746Z,101919.31
2023-04-19T16:44:08.510Z,101911.50
2023-04-19T16:46:35.571Z,101904.13
2023-04-19T16:49:02.450Z,101906.44
2023-04-19T16:51:29.143Z,101912.63
2023-04-19T16:53:56.108Z,101918.84
2023-04-19T16:56:22.869Z,101911.22
2023-04-19T16:58:50.215Z,101910.03
2023-04-19T17:01:17.176Z,101912.34
2023-04-19T17:03:45.205Z,101909.88
2023-04-19T17:06:12.048Z,101919.84
2023-04-19T17:08:39.962Z,101909.72
2023-04-19T17:11:06.866Z,101906.31
2023-04-19T17:13:33.595Z,101916.44
2023-04-19T17:16:00.385Z,101897.16
2023-04-19T17:18:27.015Z,101895.19
2023-04-19T17:20:53.688Z,101901.41
2023-04-19T17:23:21.277Z,101905.97
2023-04-19T17:25:48.080Z,101901.59
2023-04-19T17:28:14.683Z,101895.38
2023-04-19T17:30:41.357Z,101899.97
2023-04-19T17:33:08.682Z,101884.44
2023-04-19T17:35:35.394Z,101887.22
2023-04-19T17:38:01.982Z,101884.28
2023-04-19T17:40:29.549Z,101865.50
2023-04-19T17:42:56.530Z,101866.00
2023-04-19T17:45:25.033Z,101862.25
2023-04-19T17:47:55.300Z,101870.44
2023-04-19T17:50:22.852Z,101859.63
2023-04-19T17:52:49.589Z,101864.53
2023-04-19T17:55:16.254Z,101859.16
2023-04-19T17:57:46.063Z,101858.94
2023-04-19T18:00:13.589Z,101851.78
2023-04-19T18:02:40.824Z,101855.81
2023-04-19T18:05:10.297Z,101853.84
2023-04-19T18:07:36.965Z,101846.16
2023-04-19T18:10:04.279Z,101850.03
2023-04-19T18:12:31.045Z,101850.88
2023-04-19T18:14:57.671Z,101852.06
2023-04-19T18:17:24.563Z,101841.63
2023-04-19T18:19:51.548Z,101847.22
2023-04-19T18:22:18.234Z,101854.56
2023-04-19T18:24:46.929Z,101846.22
2023-04-19T18:27:14.156Z,101833.69
2023-04-19T18:29:40.991Z,101840.84
2023-04-19T18:32:07.696Z,101838.94
2023-04-19T18:34:35.985Z,101835.00
2023-04-19T18:37:04.980Z,101835.97
2023-04-19T18:39:31.609Z,101831.25
2023-04-19T18:41:58.464Z,101835.97
2023-04-19T18:44:49.625Z,101835.97
2023-04-19T18:47:12.838Z,101843.16
2023-04-19T18:49:39.859Z,101837.06
2023-04-19T18:52:07.154Z,101831.38
2023-04-19T18:54:33.944Z,101836.75
2023-04-19T18:59:31.045Z,101833.31
2023-04-19T19:01:57.872Z,101824.03
2023-04-19T19:06:54.640Z,101822.72
2023-04-19T19:09:22.865Z,101825.00
2023-04-19T19:11:56.436Z,101845.88
2023-04-19T19:14:23.721Z,101833.16
2023-04-19T19:16:52.403Z,101836.25
2023-04-19T19:19:22.378Z,101842.78
2023-04-19T19:21:49.591Z,101832.31
2023-04-19T19:24:16.247Z,101834.94
2023-04-19T19:26:42.869Z,101831.66
2023-04-19T19:29:10.610Z,101845.03
2023-04-19T19:31:37.254Z,101835.91
2023-04-19T19:34:22.668Z,101843.38
2023-04-19T19:36:53.596Z,101842.41
2023-04-19T19:39:21.681Z,101848.59
2023-04-19T19:44:17.962Z,101852.84
2023-04-19T19:46:44.782Z,101845.97
2023-04-19T19:49:12.954Z,101847.94
2023-04-19T19:51:57.813Z,101843.84
2023-04-19T19:54:25.654Z,101854.13
2023-04-19T19:57:35.588Z,101857.56
2023-04-19T19:59:40.465Z,101855.09
2023-04-19T20:02:08.573Z,101858.97
2023-04-19T20:04:36.176Z,101859.31
2023-04-19T20:09:34.424Z,101862.72
2023-04-19T20:12:02.094Z,101850.81
2023-04-19T20:14:28.727Z,101860.28
2023-04-19T20:16:55.636Z,101861.91
2023-04-19T20:19:22.540Z,101866.66
2023-04-19T20:21:49.450Z,101873.66
2023-04-19T20:24:16.090Z,101866.78
2023-04-19T20:26:42.903Z,101867.94
2023-04-19T20:29:10.758Z,101869.38
2023-04-19T20:31:37.397Z,101872.16
2023-04-19T20:34:04.374Z,101889.91
2023-04-19T20:36:31.874Z,101877.22
2023-04-19T20:38:59.064Z,101874.94
2023-04-19T20:41:25.716Z,101889.09
2023-04-19T20:43:52.483Z,101881.94
2023-04-19T20:46:19.223Z,101883.88
2023-04-19T20:48:46.021Z,101882.56
2023-04-19T20:51:12.900Z,101876.19
2023-04-19T20:53:39.774Z,101869.69
2023-04-19T20:56:06.626Z,101875.84
2023-04-19T20:58:33.820Z,101876.47
2023-04-19T21:01:00.773Z,101883.16
2023-04-19T21:03:28.071Z,101881.19
2023-04-19T21:05:54.860Z,101888.53
2023-04-19T21:08:23.484Z,101884.94
2023-04-19T21:10:50.326Z,101886.06
2023-04-19T21:13:17.045Z,101895.53
2023-04-19T21:15:43.715Z,101897.13
2023-04-19T21:18:11.669Z,101892.75
2023-04-19T21:20:39.429Z,101896.63
2023-04-19T21:23:06.308Z,101895.00
2023-04-19T21:25:33.052Z,101896.97
2023-04-19T21:27:59.743Z,101897.28
2023-04-19T21:30:26.358Z,101884.88
2023-04-19T21:32:53.113Z,101886.81
2023-04-19T21:35:20.008Z,101878.03
2023-04-19T21:37:48.280Z,101895.28
2023-04-19T21:40:14.906Z,101889.72
2023-04-19T21:42:41.646Z,101898.66
2023-04-19T21:45:09.049Z,101900.63
2023-04-19T21:47:35.885Z,101905.38
2023-04-19T21:50:02.533Z,101903.22
2023-04-19T21:52:29.253Z,101907.44
2023-04-19T21:54:56.498Z,101897.81
2023-04-19T21:57:24.888Z,101910.84
2023-04-19T21:59:52.023Z,101895.97
2023-04-19T22:02:19.577Z,101899.06
2023-04-19T22:04:46.359Z,101901.34
2023-04-19T22:07:13.117Z,101901.16
2023-04-19T22:09:39.982Z,101899.84
2023-04-19T22:12:07.246Z,101898.19
2023-04-19T22:14:33.910Z,101904.38
2023-04-19T22:17:02.509Z,101892.78
2023-04-19T22:19:29.578Z,101892.28
2023-04-19T22:21:56.400Z,101907.25
2023-04-19T22:24:23.093Z,101885.44
2023-04-19T22:26:51.075Z,101903.47
2023-04-19T22:29:18.097Z,101899.66
2023-04-19T22:31:44.997Z,101898.34
2023-04-19T22:34:11.932Z,101892.00
2023-04-19T22:36:38.884Z,101915.59
2023-04-19T22:39:05.608Z,101903.50
2023-04-19T22:41:33.332Z,101909.84
2023-04-19T22:44:00.489Z,101905.78
2023-04-19T22:46:27.334Z,101906.59
2023-04-19T22:48:56.105Z,101911.94
2023-04-19T22:51:24.370Z,101917.59
2023-04-19T22:53:51.583Z,101905.19
2023-04-19T22:56:18.213Z,101917.69
2023-04-19T22:58:46.069Z,101914.72
2023-04-19T23:01:12.922Z,101920.06
2023-04-19T23:03:39.565Z,101917.94
2023-04-19T23:06:08.041Z,101913.53
2023-04-19T23:08:35.187Z,101919.88
2023-04-19T23:11:01.824Z,101919.56
2023-04-19T23:13:28.569Z,101914.84
2023-04-19T23:15:55.231Z,101912.91
2023-04-19T23:18:22.049Z,101906.06
2023-04-19T23:20:48.736Z,101915.78
2023-04-19T23:23:15.512Z,101904.53
2023-04-19T23:25:42.391Z,101909.56
2023-04-19T23:28:11.072Z,101905.75
2023-04-19T23:30:39.118Z,101893.19
2023-04-19T23:33:06.043Z,101909.25
2023-04-19T23:35:32.841Z,101908.75
2023-04-19T23:37:59.467Z,101905.00
2023-04-19T23:40:26.337Z,101912.75
2023-04-19T23:42:53.006Z,101911.75
2023-04-19T23:45:19.726Z,101923.13
2023-04-19T23:47:46.408Z,101940.00
2023-04-19T23:50:13.144Z,101931.72
2023-04-19T23:52:41.253Z,101941.16
2023-04-19T23:55:08.269Z,101944.69
2023-04-19T23:57:35.773Z,101942.75
